createdAt,value
2018-06-21T00:00:28.000Z,32
2018-06-21T00:02:28.000Z,31.9
2018-06-21T00:04:28.000Z,31.9
2018-06-21T00:06:28.000Z,31.8
2018-06-21T00:08:28.000Z,31.8
2018-06-21T00:09:28.000Z,31.8
2018-06-21T00:11:28.000Z,31.8
2018-06-21T00:13:28.000Z,31.7
2018-06-21T00:15:28.000Z,31.7
2018-06-21T00:17:28.000Z,31.6
2018-06-21T00:19:28.000Z,31.6
2018-06-21T00:20:28.000Z,31.7
2018-06-21T00:21:28.000Z,31.7
2018-06-21T00:23:28.000Z,31.7
2018-06-21T00:25:28.000Z,31.7
2018-06-21T00:26:28.000Z,31.8
2018-06-21T00:28:28.000Z,31.8
2018-06-21T00:29:28.000Z,31.8
2018-06-21T00:31:28.000Z,31.7
2018-06-21T00:32:28.000Z,31.7
2018-06-21T00:33:28.000Z,31.7
2018-06-21T00:34:28.000Z,31.8
2018-06-21T00:36:28.000Z,31.8
2018-06-21T00:37:28.000Z,31.8
2018-06-21T00:39:12.000Z,31.9
2018-06-21T00:40:28.000Z,31.9
2018-06-21T00:41:28.000Z,31.9
2018-06-21T00:43:28.000Z,31.9
2018-06-21T00:45:28.000Z,31.8
2018-06-21T00:46:28.000Z,31.8
2018-06-21T00:48:28.000Z,31.8
2018-06-21T00:50:28.000Z,31.8
2018-06-21T00:52:28.000Z,31.7
2018-06-21T00:54:28.000Z,31.7
2018-06-21T00:55:28.000Z,31.7
2018-06-21T00:57:28.000Z,31.8
2018-06-21T00:58:28.000Z,31.8
2018-06-21T00:59:28.000Z,31.8
2018-06-21T01:01:28.000Z,31.9
2018-06-21T01:02:28.000Z,31.9
2018-06-21T01:04:12.000Z,31.9
2018-06-21T01:05:28.000Z,31.9
2018-06-21T01:06:28.000Z,31.9
2018-06-21T01:08:28.000Z,31.9
2018-06-21T01:09:28.000Z,31.8
2018-06-21T01:11:28.000Z,31.8
2018-06-21T01:13:28.000Z,31.7
2018-06-21T01:14:28.000Z,31.7
2018-06-21T01:16:28.000Z,31.7
2018-06-21T01:17:28.000Z,31.7
2018-06-21T01:18:28.000Z,31.8
2018-06-21T01:19:28.000Z,31.8
2018-06-21T01:20:28.000Z,31.9
2018-06-21T01:22:28.000Z,31.9
2018-06-21T01:24:28.000Z,31.7
2018-06-21T01:25:28.000Z,31.7
2018-06-21T01:27:12.000Z,31.7
2018-06-21T01:28:28.000Z,31.6
2018-06-21T01:30:28.000Z,31.6
2018-06-21T01:31:28.000Z,31.6
2018-06-21T01:32:28.000Z,31.7
2018-06-21T01:33:28.000Z,31.8
2018-06-21T01:34:28.000Z,31.8
2018-06-21T01:36:28.000Z,31.8
2018-06-21T01:37:28.000Z,31.8
2018-06-21T01:39:28.000Z,31.8
2018-06-21T01:40:28.000Z,31.7
2018-06-21T01:42:28.000Z,31.7
2018-06-21T01:44:28.000Z,31.6
2018-06-21T01:45:28.000Z,31.5
2018-06-21T01:47:28.000Z,31.5
2018-06-21T01:48:28.000Z,31.6
2018-06-21T01:49:28.000Z,31.6
2018-06-21T01:50:28.000Z,31.7
2018-06-21T01:52:28.000Z,31.8
2018-06-21T01:53:28.000Z,31.8
2018-06-21T01:55:12.000Z,31.8
2018-06-21T01:56:28.000Z,31.8
2018-06-21T01:57:28.000Z,31.8
2018-06-21T01:59:28.000Z,31.8
2018-06-21T02:00:28.000Z,31.8
2018-06-21T02:02:28.000Z,31.8
2018-06-21T02:04:28.000Z,31.7
2018-06-21T02:06:28.000Z,31.6
2018-06-21T02:07:28.000Z,31.6
2018-06-21T02:08:28.000Z,31.6
2018-06-21T02:10:28.000Z,31.6
2018-06-21T02:11:28.000Z,31.6
2018-06-21T02:13:28.000Z,31.6
2018-06-21T02:15:28.000Z,31.5
2018-06-21T02:16:28.000Z,31.5
2018-06-21T02:18:28.000Z,31.5
2018-06-21T02:20:28.000Z,31.5
2018-06-21T02:22:28.000Z,31.5
2018-06-21T02:24:28.000Z,31.4
2018-06-21T02:25:28.000Z,31.4
2018-06-21T02:27:28.000Z,31.4
2018-06-21T02:29:28.000Z,31.5
2018-06-21T02:30:28.000Z,31.5
2018-06-21T02:32:28.000Z,31.5
2018-06-21T02:33:28.000Z,31.5
2018-06-21T02:35:28.000Z,31.6
2018-06-21T02:36:28.000Z,31.6
2018-06-21T02:37:28.000Z,31.6
2018-06-21T02:39:28.000Z,31.7
2018-06-21T02:41:28.000Z,31.6
2018-06-21T02:42:28.000Z,31.6
2018-06-21T02:43:28.000Z,31.6
2018-06-21T03:22:03.000Z,29.4
2018-06-21T03:58:51.000Z,29.3
2018-06-21T04:00:37.000Z,29.5
2018-06-21T04:02:22.000Z,29.8
2018-06-21T04:03:37.000Z,30
2018-06-21T04:04:37.000Z,30.1
2018-06-21T04:06:37.000Z,30.5
2018-06-21T04:07:37.000Z,30.6
2018-06-21T04:08:37.000Z,30.8
2018-06-21T04:09:37.000Z,30.9
2018-06-21T04:11:37.000Z,31.1
2018-06-21T04:13:37.000Z,31.1
2018-06-21T04:14:37.000Z,31.2
2018-06-21T04:16:37.000Z,31.3
2018-06-21T04:17:37.000Z,31.4
2018-06-21T04:19:37.000Z,31.4
2018-06-21T04:20:37.000Z,31.4
2018-06-21T04:22:37.000Z,31.5
2018-06-21T04:24:37.000Z,31.5
2018-06-21T04:25:37.000Z,31.5
2018-06-21T04:27:37.000Z,31.6
2018-06-21T04:29:37.000Z,31.6
2018-06-21T04:31:22.000Z,31.5
2018-06-21T04:32:37.000Z,31.5
2018-06-21T04:34:37.000Z,31.5
2018-06-21T04:36:37.000Z,31.2
2018-06-21T04:37:37.000Z,31.4
2018-06-21T04:38:37.000Z,31.4
2018-06-21T04:40:22.000Z,31.4
2018-06-21T04:41:37.000Z,31.4
2018-06-21T04:42:37.000Z,31.5
2018-06-21T04:44:37.000Z,31.5
2018-06-21T04:45:37.000Z,31.6
2018-06-21T04:47:37.000Z,31.7
2018-06-21T04:48:37.000Z,31.7
2018-06-21T04:50:37.000Z,31.7
2018-06-21T04:52:22.000Z,31.7
2018-06-21T04:53:37.000Z,31.7
2018-06-21T04:55:37.000Z,31.7
2018-06-21T04:57:37.000Z,31.7
2018-06-21T04:59:37.000Z,31.7
2018-06-21T05:01:37.000Z,31.7
2018-06-21T05:02:37.000Z,31.7
2018-06-21T05:04:37.000Z,31.8
2018-06-21T05:05:37.000Z,31.8
2018-06-21T05:07:37.000Z,31.8
2018-06-21T05:09:37.000Z,31.8
2018-06-21T05:11:37.000Z,31.8
2018-06-21T05:13:37.000Z,31.8
2018-06-21T05:14:37.000Z,31.8
2018-06-21T05:16:37.000Z,31.8
2018-06-21T05:18:37.000Z,31.8
2018-06-21T05:19:37.000Z,31.8
2018-06-21T05:20:37.000Z,31.8
2018-06-21T05:22:37.000Z,31.9
2018-06-21T05:24:22.000Z,31.9
2018-06-21T05:25:37.000Z,31.8
2018-06-21T05:27:37.000Z,31.8
2018-06-21T05:28:37.000Z,31.8
2018-06-21T05:30:37.000Z,31.9
2018-06-21T05:32:37.000Z,31.9
2018-06-21T05:34:37.000Z,31.8
2018-06-21T05:35:37.000Z,31.9
2018-06-21T05:37:37.000Z,31.9
2018-06-21T05:38:37.000Z,31.9
2018-06-21T05:40:37.000Z,31.9
2018-06-21T05:42:37.000Z,31.9
2018-06-21T05:44:37.000Z,31.8
2018-06-21T05:45:37.000Z,31.8
2018-06-21T05:47:37.000Z,31.8
2018-06-21T05:49:37.000Z,31.8
2018-06-21T05:51:37.000Z,31.7
2018-06-21T05:52:37.000Z,31.7
2018-06-21T05:54:37.000Z,31.7
2018-06-21T05:55:37.000Z,31.7
2018-06-21T05:57:37.000Z,31.7
2018-06-21T05:58:37.000Z,31.8
2018-06-21T06:00:37.000Z,31.7
2018-06-21T06:01:37.000Z,31.7
2018-06-21T06:03:37.000Z,31.7
2018-06-21T06:04:37.000Z,31.7
2018-06-21T06:05:37.000Z,31.7
2018-06-21T06:07:37.000Z,31.8
2018-06-21T06:08:37.000Z,31.8
2018-06-21T06:10:37.000Z,31.8
2018-06-21T06:12:37.000Z,31.7
2018-06-21T06:14:37.000Z,31.7
2018-06-21T06:16:37.000Z,31.6
2018-06-21T06:17:37.000Z,31.6
2018-06-21T06:19:37.000Z,31.4
2018-06-21T06:21:37.000Z,31
2018-06-21T06:22:37.000Z,30.8
2018-06-21T06:24:37.000Z,30.5
2018-06-21T06:26:37.000Z,30.2
2018-06-21T06:28:37.000Z,30
2018-06-21T06:29:37.000Z,29.9
2018-06-21T06:31:37.000Z,29.8
2018-06-21T06:32:37.000Z,29.7
2018-06-21T06:34:37.000Z,29.6
2018-06-21T06:35:37.000Z,29.6
2018-06-21T06:36:37.000Z,29.5
2018-06-21T06:37:37.000Z,29.6
2018-06-21T06:39:37.000Z,29.5
2018-06-21T06:41:37.000Z,29.4
2018-06-21T06:43:37.000Z,29.3
2018-06-21T06:44:37.000Z,29.3
2018-06-21T06:46:37.000Z,29.4
2018-06-21T06:48:37.000Z,29.4
2018-06-21T06:49:37.000Z,29.4
2018-06-21T06:50:37.000Z,29.4
2018-06-21T06:52:37.000Z,29.4
2018-06-21T06:54:37.000Z,29.3
2018-06-21T06:55:37.000Z,29.2
2018-06-21T06:56:37.000Z,29.2
2018-06-21T06:58:37.000Z,29.1
2018-06-21T06:59:37.000Z,29.1
2018-06-21T07:01:37.000Z,29
2018-06-21T07:03:37.000Z,28.9
2018-06-21T07:05:37.000Z,28.8
2018-06-21T07:07:37.000Z,28.7
2018-06-21T07:08:37.000Z,28.7
2018-06-21T07:10:22.000Z,28.7
2018-06-21T07:11:37.000Z,28.7
2018-06-21T07:13:37.000Z,28.6
2018-06-21T07:14:37.000Z,28.7
2018-06-21T07:15:37.000Z,28.7
2018-06-21T07:17:37.000Z,28.6
2018-06-21T07:18:37.000Z,28.6
2018-06-21T07:20:37.000Z,28.6
2018-06-21T07:22:37.000Z,28.6
2018-06-21T07:23:37.000Z,28.6
2018-06-21T07:24:37.000Z,28.6
2018-06-21T07:26:37.000Z,28.6
2018-06-21T07:28:37.000Z,28.6
2018-06-21T07:30:37.000Z,28.4
2018-06-21T07:31:37.000Z,28.4
2018-06-21T07:33:37.000Z,28.4
2018-06-21T07:35:37.000Z,28.4
2018-06-21T07:37:37.000Z,28.4
2018-06-21T07:39:37.000Z,28.4
2018-06-21T07:41:37.000Z,28.5
2018-06-21T07:43:37.000Z,28.6
2018-06-21T07:44:37.000Z,28.7
2018-06-21T07:45:37.000Z,28.8
2018-06-21T07:47:37.000Z,28.9
2018-06-21T07:48:37.000Z,29
2018-06-21T07:50:37.000Z,29.1
2018-06-21T07:52:37.000Z,29.1
2018-06-21T07:54:37.000Z,29.2
2018-06-21T07:55:37.000Z,29.2
2018-06-21T07:57:37.000Z,29.2
2018-06-21T07:58:37.000Z,29.3
2018-06-21T08:00:37.000Z,29.3
2018-06-21T08:02:22.000Z,29.4
2018-06-21T08:03:37.000Z,29.4
2018-06-21T08:04:37.000Z,29.5
2018-06-21T08:05:37.000Z,29.5
2018-06-21T08:07:37.000Z,29.6
2018-06-21T08:09:37.000Z,29.5
2018-06-21T08:11:37.000Z,29.4
2018-06-21T08:13:37.000Z,29.4
2018-06-21T08:15:37.000Z,29.4
2018-06-21T08:16:37.000Z,29.3
2018-06-21T08:18:37.000Z,29.4
2018-06-21T08:19:37.000Z,29.5
2018-06-21T08:21:37.000Z,29.5
2018-06-21T08:23:37.000Z,29.5
2018-06-21T08:24:37.000Z,29.5
2018-06-21T08:26:37.000Z,29.5
2018-06-21T08:28:37.000Z,29.5
2018-06-21T08:30:37.000Z,29.6
2018-06-21T08:31:37.000Z,29.7
2018-06-21T08:33:37.000Z,29.9
2018-06-21T08:35:37.000Z,30.1
2018-06-21T08:37:22.000Z,30.3
2018-06-21T08:38:37.000Z,30.3
2018-06-21T08:39:37.000Z,30.5
2018-06-21T08:41:37.000Z,30.6
2018-06-21T08:42:37.000Z,30.6
2018-06-21T08:44:37.000Z,30.5
2018-06-21T08:45:37.000Z,30.5
2018-06-21T08:47:37.000Z,30.9
2018-06-21T08:48:37.000Z,31
2018-06-21T08:50:37.000Z,31
2018-06-21T08:52:37.000Z,31
2018-06-21T08:54:37.000Z,30.7
2018-06-21T08:56:37.000Z,30.5
2018-06-21T08:58:37.000Z,30.5
2018-06-21T09:00:37.000Z,30.5
2018-06-21T09:01:37.000Z,30.6
2018-06-21T09:02:37.000Z,30.6
2018-06-21T09:04:37.000Z,30.6
2018-06-21T09:05:37.000Z,30.5
2018-06-21T09:07:37.000Z,30.2
2018-06-21T09:09:37.000Z,30
2018-06-21T09:11:37.000Z,29.9
2018-06-21T09:13:37.000Z,29.9
2018-06-21T09:15:37.000Z,29.9
2018-06-21T09:17:37.000Z,29.9
2018-06-21T09:19:37.000Z,30
2018-06-21T09:21:37.000Z,30.2
2018-06-21T09:22:37.000Z,30.2
2018-06-21T09:23:37.000Z,30.3
2018-06-21T09:25:37.000Z,30.6
2018-06-21T09:26:37.000Z,30.7
2018-06-21T09:28:37.000Z,30.9
2018-06-21T09:30:37.000Z,31.2
2018-06-21T09:31:37.000Z,31.4
2018-06-21T09:32:37.000Z,31.5
2018-06-21T09:34:37.000Z,31.5
2018-06-21T09:35:37.000Z,31.3
2018-06-21T09:36:37.000Z,31.2
2018-06-21T09:38:37.000Z,31.1
2018-06-21T09:40:37.000Z,31
2018-06-21T09:41:37.000Z,31.1
2018-06-21T09:43:22.000Z,31.1
2018-06-21T09:44:37.000Z,31.1
2018-06-21T09:45:37.000Z,31.1
2018-06-21T09:47:37.000Z,31.1
2018-06-21T09:49:22.000Z,31.2
2018-06-21T09:50:37.000Z,31.2
2018-06-21T09:52:37.000Z,31.4
2018-06-21T09:53:37.000Z,31.5
2018-06-21T09:55:37.000Z,31.7
2018-06-21T09:56:37.000Z,31.8
2018-06-21T09:57:37.000Z,31.9
2018-06-21T09:59:22.000Z,31.9
2018-06-21T10:00:37.000Z,31.9
2018-06-21T10:01:37.000Z,31.8
2018-06-21T10:02:38.000Z,31.8
2018-06-21T10:04:38.000Z,31.8
2018-06-21T10:06:38.000Z,31.6
2018-06-21T10:08:38.000Z,31.6
2018-06-21T10:09:38.000Z,31.7
2018-06-21T10:11:38.000Z,32
2018-06-21T10:12:38.000Z,32.1
2018-06-21T10:13:38.000Z,32.2
2018-06-21T10:14:38.000Z,32.3
2018-06-21T10:16:38.000Z,32.4
2018-06-21T10:18:22.000Z,32.4
2018-06-21T10:19:38.000Z,32.4
2018-06-21T10:21:38.000Z,32.4
2018-06-21T10:22:38.000Z,32.5
2018-06-21T10:24:38.000Z,32.6
2018-06-21T10:26:38.000Z,32.6
2018-06-21T10:28:38.000Z,32.6
2018-06-21T10:30:38.000Z,32.5
2018-06-21T10:31:38.000Z,32.5
2018-06-21T10:32:38.000Z,32.6
2018-06-21T10:33:38.000Z,32.6
2018-06-21T10:34:38.000Z,32.7
2018-06-21T10:35:38.000Z,32.8
2018-06-21T10:37:38.000Z,33
2018-06-21T10:38:38.000Z,33.1
2018-06-21T10:39:38.000Z,33.2
2018-06-21T10:40:38.000Z,33.3
2018-06-21T10:41:38.000Z,33.3
2018-06-21T10:43:38.000Z,33
2018-06-21T10:45:38.000Z,32.6
2018-06-21T10:46:38.000Z,32.4
2018-06-21T10:48:38.000Z,32.2
2018-06-21T10:49:38.000Z,32.2
2018-06-21T10:51:38.000Z,32.1
2018-06-21T10:52:38.000Z,32.2
2018-06-21T10:53:38.000Z,32.3
2018-06-21T10:54:38.000Z,32.5
2018-06-21T10:56:22.000Z,32.6
2018-06-21T10:57:38.000Z,32.7
2018-06-21T10:58:38.000Z,32.7
2018-06-21T11:00:38.000Z,32.6
2018-06-21T11:01:38.000Z,32.6
2018-06-21T11:03:38.000Z,32.5
2018-06-21T11:05:37.000Z,32.5
2018-06-21T11:07:37.000Z,32.4
2018-06-21T11:09:22.000Z,32.3
2018-06-21T11:10:37.000Z,32.3
2018-06-21T11:11:37.000Z,32.4
2018-06-21T11:12:37.000Z,32.5
2018-06-21T11:13:37.000Z,32.5
2018-06-21T11:15:37.000Z,32.6
2018-06-21T11:17:37.000Z,32.4
2018-06-21T11:18:37.000Z,32.4
2018-06-21T11:20:37.000Z,32.4
2018-06-21T11:22:37.000Z,32.4
2018-06-21T11:24:22.000Z,32.4
2018-06-21T11:25:37.000Z,32.3
2018-06-21T11:26:37.000Z,32.3
2018-06-21T11:27:37.000Z,32.4
2018-06-21T11:29:37.000Z,32.4
2018-06-21T11:30:37.000Z,32.3
2018-06-21T11:32:37.000Z,32.3
2018-06-21T11:34:37.000Z,32.2
2018-06-21T11:35:37.000Z,32
2018-06-21T11:36:37.000Z,32
2018-06-21T11:38:37.000Z,31.9
2018-06-21T11:39:37.000Z,31.8
2018-06-21T11:41:37.000Z,31.7
2018-06-21T11:43:37.000Z,31.7
2018-06-21T11:45:37.000Z,31.7
2018-06-21T11:47:22.000Z,31.6
2018-06-21T11:48:37.000Z,31.5
2018-06-21T11:49:37.000Z,31.5
2018-06-21T11:51:37.000Z,31.5
2018-06-21T11:53:37.000Z,31.3
2018-06-21T11:54:37.000Z,31.2
2018-06-21T11:56:37.000Z,31
2018-06-21T11:57:37.000Z,31
2018-06-21T11:58:37.000Z,31
2018-06-21T12:00:37.000Z,30.9
2018-06-21T12:02:37.000Z,30.9
2018-06-21T12:04:37.000Z,30.9
2018-06-21T12:05:37.000Z,30.9
2018-06-21T12:07:37.000Z,30.9
2018-06-21T12:09:38.000Z,30.9
2018-06-21T12:11:38.000Z,31
2018-06-21T12:12:38.000Z,31
2018-06-21T12:14:38.000Z,31
2018-06-21T12:15:38.000Z,31
2018-06-21T12:16:38.000Z,31
2018-06-21T12:17:38.000Z,31
2018-06-21T12:18:38.000Z,31
2018-06-21T12:20:23.000Z,31
2018-06-21T12:21:38.000Z,31
2018-06-21T12:23:38.000Z,31.1
2018-06-21T12:24:38.000Z,31
2018-06-21T12:26:38.000Z,31
2018-06-21T12:28:38.000Z,31.1
2018-06-21T12:30:22.000Z,31.1
2018-06-21T12:31:38.000Z,31.1
2018-06-21T12:32:38.000Z,31.2
2018-06-21T12:34:38.000Z,31.2
2018-06-21T12:36:22.000Z,31.2
2018-06-21T12:37:38.000Z,31.1
2018-06-21T12:39:38.000Z,31
2018-06-21T12:40:38.000Z,30.9
2018-06-21T12:42:38.000Z,30.8
2018-06-21T12:43:38.000Z,30.8
2018-06-21T12:44:38.000Z,30.9
2018-06-21T12:46:38.000Z,30.9
2018-06-21T12:48:38.000Z,30.8
2018-06-21T12:49:38.000Z,30.8
2018-06-21T12:50:38.000Z,30.7
2018-06-21T12:52:38.000Z,30.6
2018-06-21T12:53:38.000Z,30.6
2018-06-21T12:55:38.000Z,30.4
2018-06-21T12:57:22.000Z,30.2
2018-06-21T12:58:38.000Z,30.1
2018-06-21T13:00:38.000Z,29.9
2018-06-21T13:01:38.000Z,29.8
2018-06-21T13:03:38.000Z,29.7
2018-06-21T13:04:38.000Z,29.6
2018-06-21T13:05:38.000Z,29.6
2018-06-21T13:06:38.000Z,29.6
2018-06-21T13:08:38.000Z,29.7
2018-06-21T13:10:38.000Z,29.6
2018-06-21T13:12:38.000Z,29.5
2018-06-21T13:13:37.000Z,29.5
2018-06-21T13:15:37.000Z,29.5
2018-06-21T13:17:22.000Z,29.4
2018-06-21T13:18:37.000Z,29.4
2018-06-21T13:19:37.000Z,29.4
2018-06-21T13:21:37.000Z,29.4
2018-06-21T13:23:37.000Z,29.3
2018-06-21T13:24:37.000Z,29.3
2018-06-21T13:25:37.000Z,29.3
2018-06-21T13:27:37.000Z,29.4
2018-06-21T13:28:37.000Z,29.4
2018-06-21T13:30:37.000Z,29.5
2018-06-21T13:31:37.000Z,29.6
2018-06-21T13:32:37.000Z,29.6
2018-06-21T13:33:37.000Z,29.6
2018-06-21T13:35:37.000Z,29.7
2018-06-21T13:37:37.000Z,29.7
2018-06-21T13:39:37.000Z,29.6
2018-06-21T13:41:37.000Z,29.5
2018-06-21T13:43:37.000Z,29.3
2018-06-21T13:45:37.000Z,29.2
2018-06-21T13:47:37.000Z,29.2
2018-06-21T13:48:37.000Z,29.2
2018-06-21T13:50:37.000Z,29.3
2018-06-21T13:52:37.000Z,29.2
2018-06-21T13:54:37.000Z,29.2
2018-06-21T13:55:37.000Z,29.1
2018-06-21T13:57:37.000Z,29.2
2018-06-21T13:59:37.000Z,29.1
2018-06-21T14:00:37.000Z,29.1
2018-06-21T14:02:37.000Z,29.1
2018-06-21T14:04:37.000Z,29
2018-06-21T14:05:37.000Z,29
2018-06-21T14:07:37.000Z,29
2018-06-21T14:08:37.000Z,29
2018-06-21T14:10:37.000Z,28.9
2018-06-21T14:11:37.000Z,28.9
2018-06-21T14:12:37.000Z,28.9
2018-06-21T14:14:37.000Z,28.9
2018-06-21T14:16:37.000Z,28.8
2018-06-21T14:17:37.000Z,28.8
2018-06-21T14:18:37.000Z,28.8
2018-06-21T14:20:37.000Z,28.7
2018-06-21T14:21:37.000Z,28.7
2018-06-21T14:23:37.000Z,28.7
2018-06-21T14:25:22.000Z,28.7
2018-06-21T14:26:37.000Z,28.6
2018-06-21T14:28:37.000Z,28.6
2018-06-21T14:29:37.000Z,28.5
2018-06-21T14:31:37.000Z,28.6
2018-06-21T14:32:37.000Z,28.6
2018-06-21T14:33:37.000Z,28.6
2018-06-21T14:34:37.000Z,28.7
2018-06-21T14:36:37.000Z,28.7
2018-06-21T14:37:37.000Z,28.7
2018-06-21T14:38:37.000Z,28.7
2018-06-21T14:39:37.000Z,28.8
2018-06-21T14:41:37.000Z,28.8
2018-06-21T14:42:37.000Z,28.8
2018-06-21T14:43:37.000Z,28.8
2018-06-21T14:45:22.000Z,28.8
2018-06-21T14:46:37.000Z,28.7
2018-06-21T14:48:37.000Z,28.7
2018-06-21T14:50:37.000Z,28.6
2018-06-21T14:51:37.000Z,28.6
2018-06-21T14:53:37.000Z,28.5
2018-06-21T14:55:22.000Z,28.5
2018-06-21T14:56:37.000Z,28.4
2018-06-21T14:58:37.000Z,28.4
2018-06-21T14:59:37.000Z,28.4
2018-06-21T15:00:37.000Z,28.5
2018-06-21T15:02:22.000Z,28.6
2018-06-21T15:03:37.000Z,28.7
2018-06-21T15:04:37.000Z,28.8
2018-06-21T15:06:37.000Z,28.9
2018-06-21T15:08:37.000Z,28.9
2018-06-21T15:10:37.000Z,28.9
2018-06-21T15:11:37.000Z,28.9
2018-06-21T15:12:37.000Z,29
2018-06-21T15:13:37.000Z,29.1
2018-06-21T15:15:37.000Z,29.1
2018-06-21T15:16:37.000Z,29.2
2018-06-21T15:18:37.000Z,29.2
2018-06-21T15:19:37.000Z,29.2
2018-06-21T15:21:22.000Z,29.2
2018-06-21T15:22:37.000Z,29.1
2018-06-21T15:23:37.000Z,29.1
2018-06-21T15:25:37.000Z,29
2018-06-21T15:27:38.000Z,28.9
2018-06-21T15:29:37.000Z,28.7
2018-06-21T15:30:37.000Z,28.7
2018-06-21T15:32:37.000Z,28.7
2018-06-21T15:33:37.000Z,28.6
2018-06-21T15:34:37.000Z,28.7
2018-06-21T15:36:37.000Z,28.7
2018-06-21T15:37:37.000Z,28.7
2018-06-21T15:39:37.000Z,28.7
2018-06-21T15:41:37.000Z,28.7
2018-06-21T15:43:37.000Z,28.7
2018-06-21T15:45:37.000Z,28.7
2018-06-21T15:46:37.000Z,28.7
2018-06-21T15:48:22.000Z,28.9
2018-06-21T15:49:37.000Z,28.9
2018-06-21T15:51:37.000Z,28.8
2018-06-21T15:52:37.000Z,28.8
2018-06-21T15:54:37.000Z,29
2018-06-21T15:55:37.000Z,29.1
2018-06-21T15:56:37.000Z,29.2
2018-06-21T15:58:37.000Z,29.4
2018-06-21T16:00:37.000Z,29.5
2018-06-21T16:02:37.000Z,29.6
2018-06-21T16:04:37.000Z,29.7
2018-06-21T16:06:22.000Z,29.7
2018-06-21T16:07:37.000Z,29.7
2018-06-21T16:08:37.000Z,29.8
2018-06-21T16:10:37.000Z,29.9
2018-06-21T16:12:37.000Z,29.9
2018-06-21T16:13:37.000Z,29.9
2018-06-21T16:14:37.000Z,30
2018-06-21T16:16:37.000Z,30
2018-06-21T16:18:22.000Z,30
2018-06-21T16:19:37.000Z,30
2018-06-21T16:20:37.000Z,30
2018-06-21T16:21:37.000Z,30
2018-06-21T16:23:37.000Z,30.1
2018-06-21T16:24:37.000Z,30.1
2018-06-21T16:26:37.000Z,30.1
2018-06-21T16:28:37.000Z,30.1
2018-06-21T16:30:37.000Z,30
2018-06-21T16:32:37.000Z,30
2018-06-21T16:33:37.000Z,30
2018-06-21T16:34:37.000Z,30
2018-06-21T16:36:37.000Z,30
2018-06-21T16:38:37.000Z,30
2018-06-21T16:39:37.000Z,30.1
2018-06-21T16:40:37.000Z,30.1
2018-06-21T16:41:37.000Z,30.2
2018-06-21T16:42:37.000Z,30.3
2018-06-21T16:44:37.000Z,30.3
2018-06-21T16:45:37.000Z,30.3
2018-06-21T16:46:37.000Z,30.4
2018-06-21T16:48:37.000Z,30.4
2018-06-21T16:49:37.000Z,30.4
2018-06-21T16:51:37.000Z,30.4
2018-06-21T16:53:37.000Z,30.3
2018-06-21T16:54:37.000Z,30.3
2018-06-21T16:56:37.000Z,30.3
2018-06-21T16:58:22.000Z,30.3
2018-06-21T16:59:37.000Z,30.2
2018-06-21T17:00:37.000Z,30.2
2018-06-21T17:02:37.000Z,30.3
2018-06-21T17:03:37.000Z,30.3
2018-06-21T17:04:37.000Z,30.4
2018-06-21T17:06:37.000Z,30.4
2018-06-21T17:07:37.000Z,30.4
2018-06-21T17:08:37.000Z,30.5
2018-06-21T17:10:37.000Z,30.5
2018-06-21T17:12:37.000Z,30.4
2018-06-21T17:13:37.000Z,30.4
2018-06-21T17:14:37.000Z,30.4
2018-06-21T17:16:37.000Z,30.5
2018-06-21T17:18:22.000Z,30.4
2018-06-21T17:19:37.000Z,30.4
2018-06-21T17:20:37.000Z,30.4
2018-06-21T17:21:37.000Z,30.5
2018-06-21T17:23:37.000Z,30.5
2018-06-21T17:24:37.000Z,30.5
2018-06-21T17:26:37.000Z,30.5
2018-06-21T17:27:37.000Z,30.6
2018-06-21T17:29:37.000Z,30.6
2018-06-21T17:30:37.000Z,30.6
2018-06-21T17:32:37.000Z,30.6
2018-06-21T17:33:37.000Z,30.5
2018-06-21T17:35:37.000Z,30.6
2018-06-21T17:36:37.000Z,30.6
2018-06-21T17:38:37.000Z,30.5
2018-06-21T17:39:37.000Z,30.5
2018-06-21T17:41:37.000Z,30.5
2018-06-21T17:43:37.000Z,30.5
2018-06-21T17:44:37.000Z,30.4
2018-06-21T17:46:37.000Z,30.4
2018-06-21T17:47:37.000Z,30.4
2018-06-21T17:49:37.000Z,30.5
2018-06-21T17:51:37.000Z,30.5
2018-06-21T17:53:37.000Z,30.4
2018-06-21T17:54:37.000Z,30.4
2018-06-21T17:56:37.000Z,30.4
2018-06-21T17:57:37.000Z,30.4
2018-06-21T17:58:37.000Z,30.5
2018-06-21T18:00:37.000Z,30.5
2018-06-21T18:02:37.000Z,30.5
2018-06-21T18:03:37.000Z,30.5
2018-06-21T18:05:37.000Z,30.5
2018-06-21T18:06:37.000Z,30.5
2018-06-21T18:08:37.000Z,30.5
2018-06-21T18:10:37.000Z,30.5
2018-06-21T18:12:37.000Z,30.5
2018-06-21T18:14:37.000Z,30.5
2018-06-21T18:16:37.000Z,30.4
2018-06-21T18:18:37.000Z,30.4
2018-06-21T18:20:37.000Z,30.3
2018-06-21T18:21:37.000Z,30.3
2018-06-21T18:23:22.000Z,30.4
2018-06-21T18:24:37.000Z,30.4
2018-06-21T18:25:37.000Z,30.4
2018-06-21T18:27:37.000Z,30.4
2018-06-21T18:28:37.000Z,30.5
2018-06-21T18:29:37.000Z,30.5
2018-06-21T18:31:37.000Z,30.6
2018-06-21T18:32:37.000Z,30.6
2018-06-21T18:34:37.000Z,30.6
2018-06-21T18:36:37.000Z,30.6
2018-06-21T18:37:37.000Z,30.6
2018-06-21T18:39:22.000Z,30.6
2018-06-21T18:40:37.000Z,30.6
2018-06-21T18:42:37.000Z,30.6
2018-06-21T18:44:37.000Z,30.5
2018-06-21T18:45:37.000Z,30.5
2018-06-21T18:47:37.000Z,30.5
2018-06-21T18:48:37.000Z,30.5
2018-06-21T18:49:37.000Z,30.6
2018-06-21T18:51:37.000Z,30.6
2018-06-21T18:53:37.000Z,30.5
2018-06-21T18:55:37.000Z,30.5
2018-06-21T18:57:37.000Z,30.4
2018-06-21T18:59:37.000Z,30.4
2018-06-21T19:01:37.000Z,30.3
2018-06-21T19:02:37.000Z,30.3
2018-06-21T19:04:37.000Z,30.3
2018-06-21T19:06:37.000Z,30.3
2018-06-21T19:08:37.000Z,30.3
2018-06-21T19:10:37.000Z,30.2
2018-06-21T19:12:37.000Z,30.2
2018-06-21T19:14:37.000Z,30.2
2018-06-21T19:16:37.000Z,30.1
2018-06-21T19:17:37.000Z,30
2018-06-21T19:18:37.000Z,30.1
2018-06-21T19:20:37.000Z,30.2
2018-06-21T19:22:37.000Z,30.3
2018-06-21T19:23:37.000Z,30.3
2018-06-21T19:25:37.000Z,30.4
2018-06-21T19:27:37.000Z,30.3
2018-06-21T19:28:37.000Z,30.3
2018-06-21T19:30:37.000Z,30.3
2018-06-21T19:32:37.000Z,30.2
2018-06-21T19:34:37.000Z,30.1
2018-06-21T19:36:37.000Z,30.1
2018-06-21T19:37:37.000Z,30.1
2018-06-21T19:39:37.000Z,30.2
2018-06-21T19:40:37.000Z,30.2
2018-06-21T19:41:37.000Z,30.3
2018-06-21T19:42:37.000Z,30.4
2018-06-21T19:44:37.000Z,30.4
2018-06-21T19:45:37.000Z,30.4
2018-06-21T19:46:37.000Z,30.4
2018-06-21T19:47:37.000Z,30.5
2018-06-21T19:49:37.000Z,30.5
2018-06-21T19:51:37.000Z,30.5
2018-06-21T19:53:37.000Z,30.4
2018-06-21T19:55:37.000Z,30.3
2018-06-21T19:56:37.000Z,30.3
2018-06-21T19:58:37.000Z,30.3
2018-06-21T20:00:37.000Z,30.3
2018-06-21T20:02:22.000Z,30.3
2018-06-21T20:03:37.000Z,30.2
2018-06-21T20:04:37.000Z,30.2
2018-06-21T20:05:37.000Z,30.2
2018-06-21T20:07:37.000Z,30.3
2018-06-21T20:09:37.000Z,30.3
2018-06-21T20:11:37.000Z,30.2
2018-06-21T20:13:37.000Z,30.2
2018-06-21T20:14:37.000Z,30.2
2018-06-21T20:16:37.000Z,30.2
2018-06-21T20:18:37.000Z,30.2
2018-06-21T20:19:37.000Z,30.2
2018-06-21T20:21:37.000Z,30.2
2018-06-21T20:22:37.000Z,30.1
2018-06-21T20:24:37.000Z,30.1
2018-06-21T20:26:37.000Z,30.1
2018-06-21T20:27:37.000Z,30
2018-06-21T20:29:37.000Z,30
2018-06-21T20:31:37.000Z,30
2018-06-21T20:32:37.000Z,30
2018-06-21T20:33:37.000Z,30
2018-06-21T20:34:37.000Z,30.1
2018-06-21T20:36:37.000Z,30.2
2018-06-21T20:38:37.000Z,30.2
2018-06-21T20:40:38.000Z,30.1
2018-06-21T20:42:22.000Z,30.1
2018-06-21T20:43:38.000Z,30
2018-06-21T20:44:38.000Z,30.1
2018-06-21T20:45:38.000Z,30.1
2018-06-21T20:47:22.000Z,30.1
2018-06-21T20:48:38.000Z,30.1
2018-06-21T20:49:38.000Z,30.1
2018-06-21T20:51:38.000Z,30.1
2018-06-21T20:53:38.000Z,30.1
2018-06-21T20:54:38.000Z,30.1
2018-06-21T20:55:38.000Z,30.1
2018-06-21T20:57:38.000Z,30
2018-06-21T20:58:38.000Z,30
2018-06-21T20:59:38.000Z,30.1
2018-06-21T21:01:38.000Z,30.1
2018-06-21T21:03:38.000Z,30.1
2018-06-21T21:04:38.000Z,30.1
2018-06-21T21:05:38.000Z,30.1
2018-06-21T21:07:38.000Z,30
2018-06-21T21:09:38.000Z,30
2018-06-21T21:10:38.000Z,30
2018-06-21T21:12:38.000Z,30
2018-06-21T21:14:22.000Z,30
2018-06-21T21:15:38.000Z,29.9
2018-06-21T21:16:38.000Z,30
2018-06-21T21:18:38.000Z,30
2018-06-21T21:19:38.000Z,30
2018-06-21T21:21:38.000Z,30.1
2018-06-21T21:22:38.000Z,30.1
2018-06-21T21:24:38.000Z,30.1
2018-06-21T21:26:38.000Z,30.1
2018-06-21T21:28:38.000Z,30
2018-06-21T21:29:38.000Z,30
2018-06-21T21:31:38.000Z,30
2018-06-21T21:32:38.000Z,30.1
2018-06-21T21:33:38.000Z,30.1
2018-06-21T21:35:38.000Z,30.1
2018-06-21T21:36:38.000Z,30.1
2018-06-21T21:38:22.000Z,30.1
2018-06-21T21:39:38.000Z,30.1
2018-06-21T21:40:38.000Z,30.1
2018-06-21T21:42:37.000Z,30.1
2018-06-21T21:44:37.000Z,30
2018-06-21T21:46:37.000Z,30
2018-06-21T21:48:37.000Z,29.9
2018-06-21T21:50:37.000Z,29.9
2018-06-21T21:52:37.000Z,29.8
2018-06-21T21:54:37.000Z,29.7
2018-06-21T21:55:37.000Z,29.7
2018-06-21T21:56:37.000Z,29.8
2018-06-21T21:57:37.000Z,29.8
2018-06-21T21:59:37.000Z,29.8